Terminal Aerodrome Forecast
Issued by NWS Duluth, MN

Home | Current Version | Previous Version | Text Only | Print | Product List | Glossary On
Versions: 1 2 3 4 5 6 7 8 9 10 11 12 13 14 15 16 17 18
000
FTUS43 KDLH 262200 AAA
TAFINL
TAF AMD
KINL 262241Z 2623/2718 26009G13KT P6SM VCTS BKN060CB BKN100
      TEMPO 2623/2701 22019G32KT 4SM -TSRA BKN040CB
     FM270100 29007KT P6SM FEW035 OVC100
     FM270800 30005KT P6SM VCSH BKN025 OVC080
      TEMPO 2710/2714 3SM -SHRA BR OVC018
     FM271500 35013G20KT P6SM VCSH BKN035 BKN070=

USA.gov is the U.S. government's official web portal to all federal, state and local government web resources and services.